Time;durP1;ratioP1;P1;durP2;ratioP2;P2;SDS_P1;SDS_P2;PMS_P1;PMS_P2;Temp;Humidity;BMP_temperature;BMP_pressure;BME280_temperature;BME280_humidity;BME280_pressure;Samples;Min_cycle;Max_cycle;Signal;HPM_P1;HPM_P2
2022/08/16 00:01:48;;;;;;;7.70;3.63;;;;;;;20.62;73.63;100363.06;5045241;28;20037;-86
2022/08/16 00:04:14;;;;;;;5.18;3.88;;;;;;;20.59;73.66;100371.41;5033377;28;20025;-86
2022/08/16 00:06:42;;;;;;;7.75;3.60;;;;;;;20.59;73.67;100364.31;5032669;28;20024;-86
2022/08/16 00:09:09;;;;;;;12.43;4.32;;;;;;;20.62;73.68;100373.59;5030312;28;20035;-85
2022/08/16 00:11:34;;;;;;;6.30;3.75;;;;;;;20.63;73.65;100369.94;5045623;28;20048;-86
2022/08/16 00:14:00;;;;;;;8.43;4.47;;;;;;;20.64;73.99;100363.63;5029444;28;20505;-86
2022/08/16 00:16:28;;;;;;;4.63;3.83;;;;;;;20.61;74.30;100361.47;5029603;28;20701;-86
2022/08/16 00:18:54;;;;;;;7.20;4.18;;;;;;;20.59;74.57;100371.41;5048040;28;20020;-86
2022/08/16 00:21:19;;;;;;;4.13;3.67;;;;;;;20.57;74.80;100371.66;5034506;28;20025;-87
2022/08/16 00:23:45;;;;;;;8.57;3.60;;;;;;;20.57;74.53;100371.66;5047599;28;20074;-86
2022/08/16 00:26:12;;;;;;;7.72;3.92;;;;;;;20.59;74.39;100374.84;5032690;28;20062;-86
2022/08/16 00:28:38;;;;;;;8.93;4.30;;;;;;;20.58;74.92;100377.72;5031582;28;20031;-85
2022/08/16 00:31:04;;;;;;;6.15;4.22;;;;;;;20.55;74.99;100378.97;5062955;28;20706;-86
2022/08/16 00:33:29;;;;;;;7.93;3.55;;;;;;;20.54;74.77;100376.56;5043358;28;20036;-86
2022/08/16 00:36:23;;;;;;;7.15;3.78;;;;;;;20.55;74.76;100383.44;5027128;28;20106;-86
2022/08/16 00:38:48;;;;;;;;;;;;;;;20.55;74.46;100378.16;5025869;28;20093;-87
2022/08/16 00:41:13;;;;;;;7.68;3.63;;;;;;;20.54;74.07;100380.00;5029756;28;19920;-86
2022/08/16 00:43:39;;;;;;;5.05;3.78;;;;;;;20.56;73.80;100379.78;5042863;28;20125;-86
2022/08/16 00:46:28;;;;;;;8.73;3.97;;;;;;;20.59;72.55;100380.13;5025044;28;20029;-88
2022/08/16 00:48:54;;;;;;;5.10;3.40;;;;;;;20.60;72.45;100380.94;5042800;28;20111;-86
2022/08/16 00:51:21;;;;;;;6.45;3.58;;;;;;;20.62;72.19;100384.13;5030168;28;20041;-85
2022/08/16 00:53:48;;;;;;;7.47;3.33;;;;;;;20.64;71.70;100384.69;5021804;28;20120;-85
2022/08/16 00:56:18;;;;;;;7.15;3.65;;;;;;;20.61;71.75;100383.34;5027950;28;20044;-86
2022/08/16 00:58:56;;;;;;;5.75;3.63;;;;;;;20.65;71.55;100381.06;5045684;28;20035;-86
2022/08/16 01:01:22;;;;;;;9.77;3.55;;;;;;;20.59;71.54;100385.38;5047043;28;20040;-87
2022/08/16 01:03:51;;;;;;;5.75;3.50;;;;;;;20.58;71.83;100382.97;5033713;28;20032;-87
2022/08/16 01:06:18;;;;;;;7.57;3.20;;;;;;;20.57;71.60;100376.91;5047265;28;20055;-86
2022/08/16 01:08:47;;;;;;;5.80;3.67;;;;;;;20.61;71.25;100387.81;5030219;28;20025;-87
2022/08/16 01:11:12;;;;;;;4.80;3.38;;;;;;;20.59;71.22;100379.31;5031923;28;20036;-87
2022/08/16 01:13:39;;;;;;;6.35;3.53;;;;;;;20.56;71.18;100382.41;5033802;28;20396;-85
2022/08/16 01:16:17;;;;;;;4.57;3.08;;;;;;;20.54;70.99;100377.38;5035456;28;20520;-88
2022/08/16 01:18:50;;;;;;;6.53;3.25;;;;;;;20.55;70.94;100376.34;5048598;28;20043;-86
2022/08/16 01:21:41;;;;;;;4.97;3.38;;;;;;;20.50;70.64;100384.13;5048452;28;20091;-87
2022/08/16 01:24:17;;;;;;;7.53;3.35;;;;;;;20.49;70.60;100381.72;5047960;28;20048;-87
2022/08/16 01:26:45;;;;;;;7.25;2.88;;;;;;;20.48;70.45;100383.56;5045838;28;20549;-87
2022/08/16 01:29:16;;;;;;;5.45;2.95;;;;;;;20.45;70.94;100383.22;5031169;28;20038;-86
2022/08/16 01:31:42;;;;;;;4.63;3.03;;;;;;;20.41;70.69;100375.78;5034348;28;20032;-87
2022/08/16 01:34:08;;;;;;;4.80;3.40;;;;;;;20.41;70.46;100383.69;5035786;28;20469;-87
2022/08/16 01:36:34;;;;;;;6.53;3.72;;;;;;;20.40;70.37;100383.94;5050757;28;20058;-87
2022/08/16 01:39:09;;;;;;;10.05;3.42;;;;;;;20.37;70.44;100377.28;5033437;28;20403;-87
2022/08/16 01:41:36;;;;;;;6.15;3.35;;;;;;;20.35;70.31;100379.34;5034066;28;20033;-87
2022/08/16 01:44:02;;;;;;;10.43;4.03;;;;;;;20.40;70.28;100381.31;5032539;28;20098;-87
2022/08/16 01:46:35;;;;;;;5.25;3.22;;;;;;;20.32;70.24;100389.53;5053632;28;20123;-87
2022/08/16 01:49:21;;;;;;;7.00;3.78;;;;;;;20.22;70.71;100390.13;5048757;28;20557;-87
2022/08/16 01:52:03;;;;;;;6.57;3.50;;;;;;;20.17;71.01;100382.09;5049228;28;20028;-87
2022/08/16 01:54:49;;;;;;;4.60;3.00;;;;;;;20.14;70.87;100390.47;5046779;28;20098;-86
2022/08/16 01:57:14;;;;;;;8.35;3.70;;;;;;;20.12;71.08;100382.81;5033702;28;20802;-87
2022/08/16 01:59:40;;;;;;;7.18;3.70;;;;;;;20.08;71.70;100388.72;5029416;28;20037;-88
2022/08/16 02:02:08;;;;;;;6.35;3.08;;;;;;;20.01;71.79;100389.66;5031632;28;20040;-87
2022/08/16 02:04:34;;;;;;;6.28;3.65;;;;;;;19.99;71.86;100391.72;5038266;28;20036;-87
2022/08/16 02:07:04;;;;;;;5.82;3.60;;;;;;;20.01;71.60;100388.88;5032033;28;20028;-85
2022/08/16 02:09:30;;;;;;;5.72;3.33;;;;;;;20.00;71.82;100382.81;5048255;28;20028;-85
2022/08/16 02:11:58;;;;;;;4.28;2.78;;;;;;;19.92;71.99;100388.38;5050535;28;20035;-87
2022/08/16 02:14:29;;;;;;;4.72;3.28;;;;;;;19.90;72.00;100387.81;5038942;28;20079;-87
2022/08/16 02:17:00;;;;;;;5.15;3.58;;;;;;;19.83;72.88;100381.84;5044096;28;20030;-86
2022/08/16 02:19:29;;;;;;;8.85;3.30;;;;;;;19.79;72.69;100384.13;5023628;28;20730;-87
2022/08/16 02:21:57;;;;;;;3.67;2.83;;;;;;;19.80;72.51;100383.13;5049431;28;20674;-87
2022/08/16 02:24:22;;;;;;;5.30;3.05;;;;;;;19.81;72.55;100383.91;5034594;28;20093;-87
2022/08/16 02:26:49;;;;;;;7.00;3.47;;;;;;;19.80;72.50;100385.75;5036234;28;20501;-87
2022/08/16 02:29:19;;;;;;;4.38;3.28;;;;;;;19.78;72.87;100384.38;5050283;28;20028;-86
2022/08/16 02:31:48;;;;;;;4.68;3.00;;;;;;;19.73;73.36;100379.78;5028036;28;20641;-86
2022/08/16 02:34:14;;;;;;;5.35;3.30;;;;;;;19.69;73.72;100372.56;5041393;28;20524;-86
2022/08/16 02:36:41;;;;;;;5.00;3.30;;;;;;;19.67;73.55;100380.66;5029216;28;20033;-86
2022/08/16 02:39:10;;;;;;;5.07;3.22;;;;;;;19.62;73.97;100370.03;5044757;28;20029;-86
2022/08/16 02:41:38;;;;;;;3.65;3.25;;;;;;;19.56;73.94;100366.47;5048165;28;20481;-87
2022/08/16 02:44:05;;;;;;;6.18;4.30;;;;;;;19.54;74.04;100373.00;5045957;28;20082;-87
2022/08/16 02:46:32;;;;;;;6.38;3.67;;;;;;;19.49;74.25;100372.84;5050682;28;20117;-87
2022/08/16 02:49:02;;;;;;;5.75;3.72;;;;;;;19.43;74.19;100371.94;5050561;28;22634;-86
2022/08/16 02:51:37;;;;;;;4.68;3.40;;;;;;;19.38;74.49;100377.88;5035278;28;20052;-87
2022/08/16 02:54:04;;;;;;;6.63;3.20;;;;;;;19.36;74.58;100379.09;5047628;28;20036;-87
2022/08/16 02:56:33;;;;;;;4.97;3.35;;;;;;;19.33;74.71;100376.94;5036364;28;20028;-87
2022/08/16 02:58:58;;;;;;;5.20;3.60;;;;;;;19.28;74.90;100374.97;5051265;28;20082;-86
2022/08/16 03:01:27;;;;;;;11.20;4.03;;;;;;;19.25;75.16;100375.44;5044895;28;20041;-86
2022/08/16 03:03:54;;;;;;;10.85;3.85;;;;;;;19.21;75.29;100377.69;5028596;28;20032;-85
2022/08/16 03:06:20;;;;;;;5.07;3.35;;;;;;;19.19;75.22;100377.13;5035914;28;20037;-86
2022/08/16 03:08:49;;;;;;;5.45;3.65;;;;;;;19.17;75.41;100376.53;5030994;28;20370;-87
2022/08/16 03:11:17;;;;;;;4.80;3.17;;;;;;;19.13;75.56;100383.25;5046572;28;20029;-87
2022/08/16 03:13:50;;;;;;;4.13;3.35;;;;;;;19.09;75.79;100387.34;5036411;28;20858;-86
2022/08/16 03:16:16;;;;;;;5.75;3.45;;;;;;;19.01;75.84;100383.22;5051525;28;20043;-87
2022/08/16 03:18:43;;;;;;;4.65;3.40;;;;;;;18.96;75.88;100390.94;5049915;28;20024;-85
2022/08/16 03:21:11;;;;;;;5.75;3.70;;;;;;;18.92;75.92;100383.75;5036153;28;20028;-87
2022/08/16 03:23:38;;;;;;;7.97;3.28;;;;;;;18.88;75.97;100388.63;5031280;28;20768;-86
2022/08/16 03:26:03;;;;;;;5.57;3.45;;;;;;;18.83;76.45;100385.84;5046280;28;20120;-87
2022/08/16 03:28:29;;;;;;;7.18;4.40;;;;;;;18.78;76.35;100386.50;5031441;28;20032;-87
2022/08/16 03:30:59;;;;;;;7.18;4.45;;;;;;;18.72;76.50;100389.19;5044685;28;20085;-86
2022/08/16 03:33:25;;;;;;;7.38;3.80;;;;;;;18.66;76.84;100390.88;5036557;28;20774;-87
2022/08/16 03:35:58;;;;;;;5.88;3.80;;;;;;;18.59;77.21;100387.50;5050786;28;20025;-87
2022/08/16 03:38:32;;;;;;;6.15;3.90;;;;;;;18.49;77.67;100391.44;5034734;28;20025;-87
2022/08/16 03:41:02;;;;;;;7.38;4.40;;;;;;;18.44;77.96;100385.22;5042443;28;20037;-87
2022/08/16 03:43:28;;;;;;;6.80;4.18;;;;;;;18.39;78.11;100388.53;5051204;28;20032;-87
2022/08/16 03:45:56;;;;;;;5.80;4.78;;;;;;;18.39;78.32;100387.72;5034955;28;20024;-87
2022/08/16 03:48:31;;;;;;;9.30;4.07;;;;;;;18.36;78.78;100394.19;5032850;28;20055;-87
2022/08/16 03:51:00;;;;;;;9.65;4.70;;;;;;;18.35;78.79;100389.97;5044470;28;20025;-87
2022/08/16 03:53:28;;;;;;;6.30;4.40;;;;;;;18.36;78.96;100396.03;5030044;28;20020;-87
2022/08/16 03:55:54;;;;;;;6.95;4.32;;;;;;;18.38;78.54;100397.41;5045767;28;20035;-87
2022/08/16 03:58:20;;;;;;;8.48;5.03;;;;;;;18.35;78.62;100402.31;5045812;28;20432;-87
2022/08/16 04:00:48;;;;;;;6.70;4.10;;;;;;;18.31;79.02;100409.81;5021867;28;20033;-85
2022/08/16 04:03:16;;;;;;;7.28;4.13;;;;;;;18.24;79.11;100401.19;5048061;28;20089;-87
2022/08/16 04:05:46;;;;;;;7.68;4.45;;;;;;;18.19;79.25;100412.31;5027899;28;20052;-86
2022/08/16 04:08:13;;;;;;;7.68;4.22;;;;;;;18.17;79.48;100397.81;5065232;28;20116;-86
2022/08/16 04:10:39;;;;;;;5.40;3.90;;;;;;;18.14;79.43;100408.72;5046005;28;20052;-85
2022/08/16 04:13:05;;;;;;;9.45;4.00;;;;;;;18.15;79.51;100407.72;5026604;28;20040;-87
2022/08/16 04:15:32;;;;;;;5.88;3.90;;;;;;;18.14;79.49;100404.31;5043807;28;20508;-87
2022/08/16 04:18:18;;;;;;;8.00;4.60;;;;;;;18.10;79.69;100416.22;5047342;28;20040;-86
2022/08/16 04:20:43;;;;;;;11.35;4.65;;;;;;;18.07;79.67;100421.91;5031726;28;20036;-87
2022/08/16 04:23:10;;;;;;;5.68;4.43;;;;;;;18.09;79.89;100427.75;5034800;28;20029;-87
2022/08/16 04:25:39;;;;;;;6.20;4.47;;;;;;;18.07;79.79;100425.34;5048231;28;20032;-86
2022/08/16 04:28:07;;;;;;;5.95;4.07;;;;;;;18.02;80.05;100435.66;5048210;28;20071;-87
2022/08/16 04:30:33;;;;;;;7.38;4.50;;;;;;;17.97;80.36;100439.94;5040705;28;20033;-86
2022/08/16 04:32:59;;;;;;;8.50;4.57;;;;;;;17.91;80.49;100436.34;5028189;28;20093;-86
2022/08/16 04:35:25;;;;;;;9.27;4.63;;;;;;;17.84;80.84;100433.78;5050980;28;20024;-87
2022/08/16 04:37:51;;;;;;;8.45;4.20;;;;;;;17.78;81.10;100431.16;5029523;28;20028;-87
2022/08/16 04:40:24;;;;;;;10.10;4.95;;;;;;;17.77;81.25;100433.00;5032623;28;20119;-88
2022/08/16 04:42:52;;;;;;;11.13;4.95;;;;;;;17.77;81.10;100448.72;5037551;28;20071;-86
2022/08/16 04:45:20;;;;;;;7.45;4.53;;;;;;;17.79;80.77;100448.53;5031847;28;20051;-86
2022/08/16 04:47:47;;;;;;;6.82;4.78;;;;;;;17.80;81.16;100452.75;5028285;28;20067;-86
2022/08/16 04:50:22;;;;;;;11.95;4.93;;;;;;;17.77;81.31;100455.81;5030288;28;20036;-87
2022/08/16 04:52:59;;;;;;;8.73;4.90;;;;;;;17.69;81.78;100457.66;5040683;28;20044;-86
2022/08/16 04:55:28;;;;;;;6.53;3.95;;;;;;;17.70;81.82;100464.50;5025141;28;20517;-86
2022/08/16 04:57:55;;;;;;;7.10;4.88;;;;;;;17.71;82.00;100460.06;5028481;28;20502;-87
2022/08/16 05:00:32;;;;;;;8.05;4.80;;;;;;;17.72;82.01;100461.66;5029957;28;20032;-86
2022/08/16 05:03:04;;;;;;;6.32;4.50;;;;;;;17.76;81.83;100451.56;5047746;28;20120;-87
2022/08/16 05:05:35;;;;;;;8.02;4.68;;;;;;;17.78;81.86;100457.41;5035842;28;20032;-87
2022/08/16 05:08:01;;;;;;;11.23;4.45;;;;;;;17.75;82.14;100465.69;5032201;28;20029;-87
2022/08/16 05:10:30;;;;;;;8.93;4.85;;;;;;;17.73;82.37;100463.28;5045670;28;20032;-87
2022/08/16 05:12:57;;;;;;;7.07;5.05;;;;;;;17.73;82.35;100465.13;5029231;28;20035;-87
2022/08/16 05:15:22;;;;;;;9.45;4.75;;;;;;;17.70;82.66;100471.56;5044946;28;20109;-87
2022/08/16 05:17:48;;;;;;;16.58;7.60;;;;;;;17.71;82.92;100467.94;5047885;28;20502;-86
2022/08/16 05:20:14;;;;;;;11.68;5.72;;;;;;;17.68;83.37;100461.28;5029458;28;20036;-87
2022/08/16 05:22:41;;;;;;;8.35;5.15;;;;;;;17.73;83.54;100463.28;5030001;28;20550;-87
2022/08/16 05:25:17;;;;;;;12.57;6.15;;;;;;;17.76;83.57;100464.66;5047600;28;20761;-86
2022/08/16 05:27:48;;;;;;;12.88;6.47;;;;;;;17.80;83.35;100457.97;5040344;28;20072;-88
2022/08/16 05:30:17;;;;;;;9.65;5.80;;;;;;;17.83;83.49;100455.75;5032066;28;20028;-86
2022/08/16 05:32:44;;;;;;;10.57;5.95;;;;;;;17.87;83.36;100456.16;5047376;28;20067;-85
2022/08/16 05:35:12;;;;;;;10.30;5.38;;;;;;;17.91;83.33;100457.34;5049222;28;22031;-87
2022/08/16 05:37:45;;;;;;;7.78;5.00;;;;;;;18.00;83.45;100456.06;5046548;28;20078;-86
2022/08/16 05:40:36;;;;;;;11.57;6.32;;;;;;;18.07;83.23;100456.81;5042617;28;20510;-87
2022/08/16 05:43:03;;;;;;;11.32;5.80;;;;;;;18.14;82.88;100471.69;5030551;28;20472;-87
2022/08/16 05:45:30;;;;;;;9.60;5.10;;;;;;;18.22;82.58;100476.69;5031690;28;20067;-87
2022/08/16 05:47:59;;;;;;;13.43;5.15;;;;;;;18.26;82.69;100475.25;5035442;28;20520;-86
2022/08/16 05:50:24;;;;;;;9.68;5.80;;;;;;;18.35;82.89;100478.41;5032813;28;20067;-86
2022/08/16 05:52:53;;;;;;;11.98;5.68;;;;;;;18.36;82.57;100480.81;5047480;28;20024;-86
2022/08/16 05:55:18;;;;;;;13.40;6.05;;;;;;;18.48;82.19;100473.06;5040907;28;20040;-86
2022/08/16 05:57:45;;;;;;;10.27;5.22;;;;;;;18.51;82.28;100484.94;5029846;28;20076;-86
2022/08/16 06:00:16;;;;;;;7.95;5.45;;;;;;;18.57;82.02;100476.19;5035934;28;20127;-86
2022/08/16 06:02:45;;;;;;;13.05;6.35;;;;;;;18.64;81.42;100475.09;5034894;28;20055;-83
2022/08/16 06:05:33;;;;;;;12.50;6.32;;;;;;;18.92;80.12;100481.72;5054287;28;20047;-85
2022/08/16 06:07:59;;;;;;;12.13;5.45;;;;;;;19.20;79.14;100477.78;5034749;28;21694;-86
2022/08/16 06:10:31;;;;;;;8.43;5.15;;;;;;;19.43;77.95;100479.72;5031528;28;20048;-86
2022/08/16 06:12:56;;;;;;;7.25;5.05;;;;;;;19.78;76.83;100479.88;5052098;28;20040;-85
2022/08/16 06:15:22;;;;;;;10.75;5.00;;;;;;;20.05;75.34;100489.19;5035852;28;20095;-86
2022/08/16 06:17:47;;;;;;;7.10;4.63;;;;;;;20.25;74.79;100481.78;5049928;28;20131;-85
2022/08/16 06:20:20;;;;;;;9.98;4.72;;;;;;;20.57;73.08;100474.34;5050422;28;20032;-86
2022/08/16 06:22:46;;;;;;;8.90;5.10;;;;;;;20.75;72.07;100480.53;5036056;28;20033;-84
2022/08/16 06:25:13;;;;;;;10.23;4.38;;;;;;;20.96;71.58;100479.97;5038411;28;20036;-86
2022/08/16 06:27:39;;;;;;;12.23;5.03;;;;;;;21.16;70.94;100482.19;5049043;28;20075;-86
2022/08/16 06:30:07;;;;;;;13.30;5.82;;;;;;;21.17;70.51;100486.44;5036833;28;20381;-86
2022/08/16 06:32:34;;;;;;;8.20;4.55;;;;;;;21.25;70.40;100481.81;5051668;28;20063;-87
2022/08/16 06:34:59;;;;;;;8.13;4.40;;;;;;;21.29;69.47;100486.38;5034638;28;20037;-85
2022/08/16 06:37:25;;;;;;;8.43;4.50;;;;;;;21.16;70.89;100487.44;5048458;28;20037;-86
2022/08/16 06:40:01;;;;;;;9.40;4.50;;;;;;;21.00;71.15;100488.19;5029926;28;20025;-86
2022/08/16 06:42:32;;;;;;;7.40;4.28;;;;;;;20.95;72.03;100485.47;5046984;28;20054;-86
2022/08/16 06:45:07;;;;;;;9.30;5.80;;;;;;;20.85;73.02;100493.97;5042841;28;20700;-85
2022/08/16 06:47:38;;;;;;;7.53;5.28;;;;;;;20.91;72.87;100489.59;5027018;28;20057;-86
2022/08/16 06:50:05;;;;;;;9.13;4.25;;;;;;;20.90;72.78;100493.25;5038638;28;20058;-86
2022/08/16 06:52:38;;;;;;;5.18;4.68;;;;;;;21.12;72.28;100496.06;5043918;28;20028;-86
2022/08/16 06:55:09;;;;;;;5.38;4.22;;;;;;;21.18;71.76;100488.03;5046796;28;20083;-85
2022/08/16 06:57:37;;;;;;;8.02;4.32;;;;;;;21.30;71.69;100485.34;5033536;28;20037;-86
2022/08/16 07:00:13;;;;;;;8.98;5.38;;;;;;;21.49;71.39;100485.19;5031516;28;20606;-89
2022/08/16 07:02:47;;;;;;;8.15;4.78;;;;;;;21.73;70.69;100485.88;5052338;28;20036;-85
2022/08/16 07:05:14;;;;;;;6.47;4.50;;;;;;;22.01;69.47;100490.31;5040262;28;20070;-87
2022/08/16 07:07:51;;;;;;;10.15;5.28;;;;;;;22.26;67.72;100495.22;5045341;28;20091;-84
2022/08/16 07:10:18;;;;;;;12.90;6.10;;;;;;;22.67;66.23;100502.94;5043144;28;20791;-86
2022/08/16 07:12:44;;;;;;;10.95;6.07;;;;;;;23.33;63.93;100503.78;5048916;28;20082;-85
2022/08/16 07:15:10;;;;;;;8.15;5.25;;;;;;;23.95;62.03;100501.75;5042561;28;20036;-85
2022/08/16 07:17:37;;;;;;;9.20;5.88;;;;;;;24.45;59.71;100507.72;5030587;28;20032;-85
2022/08/16 07:20:05;;;;;;;8.93;5.35;;;;;;;24.80;58.79;100512.41;5033114;28;20032;-85
2022/08/16 07:22:42;;;;;;;9.05;5.75;;;;;;;25.19;56.89;100517.34;5047721;28;20130;-84
2022/08/16 07:25:17;;;;;;;13.38;5.95;;;;;;;25.64;56.22;100517.78;5034945;28;20040;-85
2022/08/16 07:27:43;;;;;;;9.52;5.45;;;;;;;26.02;55.11;100515.69;5021301;28;20059;-84
2022/08/16 07:30:17;;;;;;;7.05;4.93;;;;;;;26.53;53.83;100520.16;5012677;28;20110;-86
2022/08/16 07:32:46;;;;;;;7.50;4.90;;;;;;;26.71;53.35;100516.97;5027692;28;20753;-88
2022/08/16 07:35:11;;;;;;;8.90;5.20;;;;;;;27.09;52.52;100514.69;5027296;28;20043;-84
2022/08/16 07:37:37;;;;;;;12.25;6.22;;;;;;;27.26;51.19;100511.69;5033364;28;20028;-85
2022/08/16 07:40:26;;;;;;;9.70;5.28;;;;;;;27.47;50.67;100509.72;5039217;28;20029;-85
2022/08/16 07:42:53;;;;;;;7.10;4.60;;;;;;;27.76;49.62;100514.31;5047635;28;20025;-83
2022/08/16 07:45:19;;;;;;;7.50;4.22;;;;;;;28.04;49.46;100523.44;5028522;28;20036;-85
2022/08/16 07:47:51;;;;;;;12.95;5.85;;;;;;;27.82;49.55;100523.03;5043562;28;20036;-83
2022/08/16 07:50:17;;;;;;;12.95;5.30;;;;;;;27.96;49.08;100514.16;5049906;28;20092;-84
2022/08/16 07:52:44;;;;;;;8.95;5.32;;;;;;;28.01;48.71;100520.53;5025284;28;20025;-86
2022/08/16 07:55:12;;;;;;;7.75;4.78;;;;;;;28.33;48.56;100517.28;5047132;28;20028;-85
2022/08/16 07:57:39;;;;;;;9.23;5.00;;;;;;;28.61;47.58;100522.91;5049697;28;20108;-85
2022/08/16 08:00:07;;;;;;;8.45;5.53;;;;;;;28.60;46.80;100521.34;5052284;28;20393;-84
2022/08/16 08:02:46;;;;;;;8.80;6.07;;;;;;;28.78;47.35;100528.56;5045438;28;20110;-85
2022/08/16 08:05:17;;;;;;;8.00;4.65;;;;;;;29.29;46.18;100524.50;5047046;28;20143;-85
2022/08/16 08:07:43;;;;;;;11.82;6.03;;;;;;;29.03;47.25;100524.81;5022662;28;20025;-85
2022/08/16 08:10:09;;;;;;;9.05;5.07;;;;;;;29.49;45.49;100529.56;5030650;28;20031;-86
2022/08/16 08:12:35;;;;;;;9.60;5.32;;;;;;;29.68;44.77;100532.22;5054189;28;20474;-85
2022/08/16 08:15:01;;;;;;;13.48;5.47;;;;;;;29.58;45.71;100529.69;5029992;28;20089;-84
2022/08/16 08:17:28;;;;;;;8.50;5.55;;;;;;;29.38;46.10;100525.44;5042091;28;20371;-85
2022/08/16 08:19:54;;;;;;;6.43;3.78;;;;;;;29.19;46.61;100522.78;5032689;28;20032;-85
2022/08/16 08:22:21;;;;;;;7.25;5.43;;;;;;;29.67;45.90;100527.97;5031598;28;20667;-85
2022/08/16 08:24:49;;;;;;;6.40;4.78;;;;;;;30.00;44.98;100519.97;5047236;28;20127;-85
2022/08/16 08:27:19;;;;;;;7.05;4.97;;;;;;;30.07;43.07;100517.72;5049070;28;20035;-86
2022/08/16 08:29:45;;;;;;;12.40;5.63;;;;;;;30.17;43.19;100526.66;5047546;28;20059;-86
2022/08/16 08:32:12;;;;;;;8.50;5.00;;;;;;;30.15;43.41;100523.47;5031921;28;20077;-85
2022/08/16 08:34:37;;;;;;;15.05;5.28;;;;;;;30.45;43.72;100527.50;5027719;28;20025;-85
2022/08/16 08:37:04;;;;;;;9.65;5.35;;;;;;;30.77;42.19;100531.19;5032184;28;20047;-86
2022/08/16 08:39:39;;;;;;;11.80;4.93;;;;;;;30.73;42.23;100530.19;5035250;28;20493;-84
2022/08/16 08:42:05;;;;;;;8.45;4.95;;;;;;;30.38;42.06;100540.47;5034401;28;20082;-85
2022/08/16 08:44:33;;;;;;;8.75;4.18;;;;;;;30.75;42.32;100536.84;5048487;28;20459;-85
2022/08/16 08:47:05;;;;;;;;;;;;;;;31.09;41.59;100538.31;5045742;28;20097;-84
2022/08/16 08:49:33;;;;;;;7.38;4.55;;;;;;;31.37;40.89;100543.59;5032790;28;20501;-84
2022/08/16 08:51:59;;;;;;;8.75;4.15;;;;;;;31.56;40.59;100530.88;5033542;28;20032;-83
2022/08/16 08:54:25;;;;;;;6.65;4.38;;;;;;;31.66;40.25;100539.75;5042900;28;20042;-84
2022/08/16 08:56:53;;;;;;;6.25;3.95;;;;;;;31.89;40.13;100538.69;5032034;28;20158;-83
2022/08/16 08:59:33;;;;;;;7.43;4.18;;;;;;;32.00;39.72;100536.50;5033786;28;20453;-85
2022/08/16 09:02:00;;;;;;;6.32;4.53;;;;;;;31.81;39.01;100531.34;5034052;28;20040;-84
2022/08/16 09:04:30;;;;;;;6.55;4.82;;;;;;;31.86;39.46;100528.56;5051651;28;20035;-85
2022/08/16 09:06:57;;;;;;;8.65;3.85;;;;;;;31.95;38.77;100531.28;5033666;28;20143;-84
2022/08/16 09:09:23;;;;;;;9.98;4.72;;;;;;;31.91;38.04;100531.13;5048367;28;20021;-85
2022/08/16 09:11:55;;;;;;;12.40;4.63;;;;;;;32.09;39.15;100526.66;5030104;28;20139;-83
2022/08/16 09:14:21;;;;;;;5.60;3.97;;;;;;;31.95;39.62;100533.97;5024424;28;20397;-85
2022/08/16 09:16:46;;;;;;;9.35;5.10;;;;;;;31.78;38.73;100527.41;5047473;28;20029;-84
2022/08/16 09:19:12;;;;;;;8.73;3.72;;;;;;;32.09;38.17;100532.03;5047794;28;20042;-85
2022/08/16 09:21:37;;;;;;;9.52;4.40;;;;;;;31.89;39.18;100537.84;5046548;28;20068;-85
2022/08/16 09:24:04;;;;;;;10.57;4.70;;;;;;;31.96;39.02;100540.91;5043332;28;20037;-84
2022/08/16 09:26:29;;;;;;;9.02;4.93;;;;;;;31.45;38.72;100537.53;5038778;28;20124;-85
2022/08/16 09:28:56;;;;;;;11.18;4.03;;;;;;;31.61;39.12;100538.78;5032774;28;20104;-84
2022/08/16 09:31:23;;;;;;;6.70;4.70;;;;;;;31.59;39.27;100543.66;5046964;28;20060;-83
2022/08/16 09:33:50;;;;;;;5.00;4.50;;;;;;;31.54;39.54;100543.00;5047455;28;21720;-84
2022/08/16 09:36:15;;;;;;;8.20;4.57;;;;;;;31.60;38.95;100545.22;5037419;28;20040;-85
2022/08/16 09:38:41;;;;;;;16.35;5.32;;;;;;;31.72;38.75;100544.72;5057186;28;20032;-84
2022/08/16 09:41:09;;;;;;;9.93;5.18;;;;;;;31.62;39.18;100537.69;5050870;28;20032;-84
2022/08/16 09:43:36;;;;;;;7.03;4.25;;;;;;;31.90;39.25;100547.50;5051700;28;20037;-85
2022/08/16 09:46:04;;;;;;;12.40;4.80;;;;;;;31.58;39.06;100535.94;5033675;28;20106;-84
2022/08/16 09:48:31;;;;;;;5.80;4.15;;;;;;;31.43;39.17;100537.03;5055359;28;20033;-82
2022/08/16 09:50:57;;;;;;;8.23;4.22;;;;;;;31.63;39.65;100538.50;5031767;28;20055;-84
2022/08/16 09:53:23;;;;;;;8.75;4.78;;;;;;;31.71;38.65;100532.41;5053684;28;20742;-83
2022/08/16 09:55:51;;;;;;;6.95;4.45;;;;;;;31.99;38.23;100533.03;5047396;28;20025;-84
2022/08/16 09:58:20;;;;;;;9.15;4.07;;;;;;;32.01;38.26;100527.38;5033711;28;20762;-85
2022/08/16 10:00:45;;;;;;;10.05;4.00;;;;;;;31.86;38.14;100525.09;5053931;28;20036;-84
2022/08/16 10:03:11;;;;;;;9.60;4.35;;;;;;;31.85;37.90;100535.00;5032611;28;20408;-83
2022/08/16 10:05:37;;;;;;;8.20;4.72;;;;;;;31.97;37.76;100527.19;5037487;28;20089;-84
2022/08/16 10:08:04;;;;;;;6.03;3.83;;;;;;;31.79;37.18;100528.19;5036315;28;20047;-82
2022/08/16 10:10:30;;;;;;;7.88;3.55;;;;;;;31.38;37.71;100523.75;5051387;28;20052;-83
2022/08/16 10:13:10;;;;;;;7.75;3.47;;;;;;;31.78;37.43;100526.63;5036743;28;20037;-84
2022/08/16 10:15:38;;;;;;;5.22;3.88;;;;;;;31.97;37.00;100526.41;5044798;28;20662;-84
2022/08/16 10:18:07;;;;;;;5.25;3.45;;;;;;;32.29;36.74;100522.66;5037086;28;20063;-84
2022/08/16 10:20:44;;;;;;;5.10;3.17;;;;;;;32.24;37.01;100516.66;5047695;28;20113;-83
2022/08/16 10:23:13;;;;;;;8.65;3.72;;;;;;;32.37;36.27;100518.44;5048684;28;20032;-84
2022/08/16 10:25:42;;;;;;;5.72;3.75;;;;;;;32.36;36.04;100514.16;5048621;28;20048;-84
2022/08/16 10:28:08;;;;;;;6.75;3.40;;;;;;;32.46;36.26;100519.25;5046678;28;20939;-85
2022/08/16 10:30:35;;;;;;;7.47;3.90;;;;;;;32.29;36.32;100514.63;5042626;28;20036;-85
2022/08/16 10:33:01;;;;;;;5.40;3.47;;;;;;;32.62;35.33;100511.59;5031934;28;20040;-86
2022/08/16 10:35:27;;;;;;;5.82;3.60;;;;;;;32.60;34.92;100516.47;5032764;28;20036;-85
2022/08/16 10:37:52;;;;;;;8.70;3.47;;;;;;;32.89;34.99;100521.28;5050341;28;20040;-85
2022/08/16 10:40:19;;;;;;;7.00;3.53;;;;;;;32.45;35.27;100516.88;5031769;28;20044;-84
2022/08/16 10:42:45;;;;;;;10.52;3.53;;;;;;;32.54;35.70;100512.34;5030769;28;20032;-85
2022/08/16 10:45:11;;;;;;;10.02;3.78;;;;;;;32.81;35.02;100514.00;5043517;28;20082;-81
2022/08/16 10:47:37;;;;;;;8.68;3.65;;;;;;;32.22;35.19;100516.16;5033188;28;20116;-80
2022/08/16 10:50:05;;;;;;;9.98;3.75;;;;;;;32.04;34.33;100515.28;5053147;28;20058;-83
2022/08/16 10:52:32;;;;;;;5.13;2.83;;;;;;;32.22;35.32;100519.63;5053000;28;20032;-81
2022/08/16 10:54:59;;;;;;;4.18;3.05;;;;;;;32.60;34.96;100519.16;5054431;28;20056;-83
2022/08/16 10:57:26;;;;;;;6.20;3.00;;;;;;;32.95;33.97;100524.63;5052034;28;20055;-84
2022/08/16 10:59:52;;;;;;;5.97;3.17;;;;;;;32.92;34.42;100528.72;5032197;28;20028;-82
2022/08/16 11:02:19;;;;;;;6.40;3.35;;;;;;;32.72;33.98;100522.06;5052651;28;20171;-84
2022/08/16 11:04:44;;;;;;;5.65;2.85;;;;;;;32.46;34.59;100530.00;5052287;28;20040;-84
2022/08/16 11:07:10;;;;;;;6.55;3.13;;;;;;;32.51;33.14;100529.03;5052944;28;20067;-83
2022/08/16 11:09:36;;;;;;;5.45;3.22;;;;;;;32.35;33.56;100532.16;5052017;28;20794;-81
2022/08/16 11:12:03;;;;;;;5.90;3.22;;;;;;;32.58;34.86;100532.88;5035542;28;20040;-82
2022/08/16 11:14:29;;;;;;;6.53;2.97;;;;;;;32.88;33.27;100521.59;5038401;28;20033;-82
2022/08/16 11:16:54;;;;;;;4.80;3.45;;;;;;;33.21;33.42;100532.75;5052257;28;20272;-82
2022/08/16 11:19:20;;;;;;;7.32;3.53;;;;;;;33.05;32.61;100531.59;5031091;28;20542;-84
2022/08/16 11:21:45;;;;;;;7.78;3.42;;;;;;;32.85;33.41;100539.13;5036248;28;20417;-81
2022/08/16 11:24:12;;;;;;;6.78;3.20;;;;;;;32.55;32.84;100543.41;5035655;28;20036;-83
2022/08/16 11:26:38;;;;;;;8.00;3.35;;;;;;;32.55;33.39;100538.88;5050748;28;20064;-82
2022/08/16 11:29:04;;;;;;;7.63;3.22;;;;;;;32.44;33.87;100539.44;5031310;28;20115;-83
2022/08/16 11:31:29;;;;;;;6.68;2.95;;;;;;;31.94;34.59;100543.88;5050298;28;20591;-85